createdAt,value
2018-08-20T00:00:08.472Z,52.70
2018-08-20T00:01:13.322Z,52.70
2018-08-20T00:02:18.315Z,52.70
2018-08-20T00:03:23.174Z,52.70
2018-08-20T00:04:27.968Z,52.70
2018-08-20T00:05:32.878Z,52.70
2018-08-20T00:06:37.676Z,52.70
2018-08-20T00:07:42.626Z,52.70
2018-08-20T00:08:47.608Z,52.70
2018-08-20T00:09:52.496Z,52.70
2018-08-20T00:10:57.408Z,52.70
2018-08-20T00:12:02.205Z,52.80
2018-08-20T00:13:07.055Z,52.90
2018-08-20T00:14:11.881Z,52.90
2018-08-20T00:15:16.749Z,52.90
2018-08-20T00:16:21.604Z,53.00
2018-08-20T00:17:26.586Z,52.90
2018-08-20T00:18:31.572Z,52.80
2018-08-20T00:19:36.537Z,52.80
2018-08-20T00:20:41.288Z,52.90
2018-08-20T00:21:46.211Z,52.90
2018-08-20T00:22:51.155Z,52.90
2018-08-20T00:23:55.914Z,52.90
2018-08-20T00:25:00.809Z,53.00
2018-08-20T00:26:05.653Z,53.00
2018-08-20T00:27:10.436Z,53.00
2018-08-20T00:28:15.209Z,53.00
2018-08-20T00:29:20.039Z,52.90
2018-08-20T00:30:24.762Z,53.00
2018-08-20T00:31:29.754Z,52.90
2018-08-20T00:32:34.722Z,52.90
2018-08-20T00:33:39.581Z,53.10
2018-08-20T00:34:44.468Z,53.10
2018-08-20T00:35:49.397Z,53.10
2018-08-20T00:36:54.371Z,53.20
2018-08-20T00:37:59.247Z,53.20
2018-08-20T00:39:04.148Z,53.20
2018-08-20T00:40:09.101Z,53.20
2018-08-20T00:41:13.894Z,53.20
2018-08-20T00:42:18.864Z,53.20
2018-08-20T00:43:23.813Z,53.20
2018-08-20T00:44:28.752Z,53.10
2018-08-20T00:45:33.697Z,53.20
2018-08-20T00:46:38.630Z,53.30
2018-08-20T00:47:43.427Z,53.30
2018-08-20T00:48:48.292Z,53.30
2018-08-20T00:49:53.095Z,53.30
2018-08-20T00:50:58.007Z,53.30
2018-08-20T00:52:02.866Z,53.40
2018-08-20T00:53:07.694Z,53.30
2018-08-20T00:54:12.589Z,53.40
2018-08-20T00:55:17.551Z,53.40
2018-08-20T00:56:22.334Z,53.40
2018-08-20T00:57:27.175Z,53.40
2018-08-20T00:58:32.039Z,53.40
2018-08-20T00:59:36.845Z,53.40
2018-08-20T01:00:41.723Z,53.50
2018-08-20T01:01:46.541Z,54.20
2018-08-20T01:02:51.343Z,53.50
2018-08-20T01:03:56.199Z,53.50
2018-08-20T01:05:01.070Z,53.60
2018-08-20T01:06:05.888Z,53.60
2018-08-20T01:07:11.744Z,53.50
2018-08-20T01:08:16.645Z,53.70
2018-08-20T01:09:21.565Z,54.40
2018-08-20T01:10:26.523Z,53.80
2018-08-20T01:11:31.399Z,53.80
2018-08-20T01:12:36.175Z,53.80
2018-08-20T01:13:41.167Z,53.80
2018-08-20T01:14:46.150Z,53.70
2018-08-20T01:15:51.012Z,53.80
2018-08-20T01:16:55.814Z,53.70
2018-08-20T01:18:00.712Z,53.70
2018-08-20T01:19:05.542Z,53.70
2018-08-20T01:20:10.345Z,53.70
2018-08-20T01:21:15.288Z,53.80
2018-08-20T01:22:20.251Z,53.80
2018-08-20T01:23:25.184Z,53.80
2018-08-20T01:24:29.969Z,53.80
2018-08-20T01:25:34.859Z,53.80
2018-08-20T01:26:39.659Z,53.70
2018-08-20T01:27:44.629Z,53.80
2018-08-20T01:28:49.425Z,53.90
2018-08-20T01:29:54.379Z,53.80
2018-08-20T01:30:59.230Z,53.80
2018-08-20T01:32:04.157Z,53.70
2018-08-20T01:33:09.136Z,53.80
2018-08-20T01:34:14.044Z,53.90
2018-08-20T01:35:18.882Z,53.90
2018-08-20T01:36:23.721Z,53.90
2018-08-20T01:37:28.561Z,53.90
2018-08-20T01:38:33.492Z,54.00
2018-08-20T01:39:38.323Z,54.00
2018-08-20T01:40:43.166Z,54.00
2018-08-20T01:41:48.029Z,54.00
2018-08-20T01:42:52.862Z,54.00
2018-08-20T01:43:57.807Z,54.00
2018-08-20T01:45:02.814Z,54.00
2018-08-20T01:46:07.766Z,54.10
2018-08-20T01:47:12.728Z,54.00
2018-08-20T01:48:17.679Z,54.00
2018-08-20T01:49:22.499Z,54.00
2018-08-20T01:50:27.465Z,54.00
2018-08-20T01:51:32.421Z,54.00
2018-08-20T01:52:37.329Z,54.10
2018-08-20T01:53:42.075Z,54.10
2018-08-20T01:54:47.027Z,54.10
2018-08-20T01:55:52.000Z,54.10
2018-08-20T01:56:56.793Z,54.20
2018-08-20T01:58:01.747Z,54.20
2018-08-20T01:59:06.535Z,54.10
2018-08-20T02:00:11.346Z,54.20
2018-08-20T02:01:16.296Z,54.30
2018-08-20T02:02:21.267Z,54.40
2018-08-20T02:03:26.119Z,54.40
2018-08-20T02:04:31.019Z,54.40
2018-08-20T02:05:35.940Z,54.40
2018-08-20T02:06:40.963Z,54.30
2018-08-20T02:07:45.954Z,54.40
2018-08-20T02:08:50.770Z,54.50
2018-08-20T02:09:55.720Z,54.50
2018-08-20T02:11:00.696Z,54.60
2018-08-20T02:12:05.680Z,54.60
2018-08-20T02:13:10.632Z,54.60
2018-08-20T02:14:15.591Z,54.70
2018-08-20T02:15:20.524Z,54.60
2018-08-20T02:16:25.356Z,54.70
2018-08-20T02:17:30.186Z,54.70
2018-08-20T02:18:35.138Z,54.80
2018-08-20T02:19:39.998Z,54.90
2018-08-20T02:20:44.805Z,54.90
2018-08-20T02:21:49.719Z,54.90
2018-08-20T02:22:54.621Z,54.90
2018-08-20T02:23:59.490Z,55.00
2018-08-20T02:25:04.387Z,55.00
2018-08-20T02:26:09.251Z,55.00
2018-08-20T02:27:14.192Z,55.20
2018-08-20T02:28:19.112Z,55.30
2018-08-20T02:29:23.962Z,55.30
2018-08-20T02:30:28.811Z,55.20
2018-08-20T02:31:33.660Z,55.30
2018-08-20T02:32:38.658Z,55.20
2018-08-20T02:33:43.593Z,55.20
2018-08-20T02:34:48.526Z,55.30
2018-08-20T02:35:53.458Z,55.40
2018-08-20T02:36:58.250Z,55.40
2018-08-20T02:38:03.159Z,55.40
2018-08-20T02:39:07.916Z,55.30
2018-08-20T02:40:12.765Z,55.20
2018-08-20T02:41:17.682Z,55.20
2018-08-20T02:42:22.436Z,55.20
2018-08-20T02:43:27.284Z,55.20
2018-08-20T02:44:32.122Z,55.20
2018-08-20T02:45:36.970Z,55.20
2018-08-20T02:46:41.791Z,55.30
2018-08-20T02:47:46.714Z,55.30
2018-08-20T02:48:51.531Z,55.30
2018-08-20T02:49:56.472Z,55.30
2018-08-20T02:51:01.260Z,55.40
2018-08-20T02:52:06.048Z,55.40
2018-08-20T02:53:10.977Z,55.40
2018-08-20T02:54:15.889Z,55.30
2018-08-20T02:55:20.834Z,55.50
2018-08-20T02:56:25.745Z,55.40
2018-08-20T02:57:30.559Z,55.50
2018-08-20T02:58:35.367Z,55.70
2018-08-20T02:59:40.157Z,55.80
2018-08-20T03:00:45.052Z,55.80
2018-08-20T03:01:49.896Z,55.70
2018-08-20T03:02:54.858Z,55.60
2018-08-20T03:03:59.704Z,55.60
2018-08-20T03:05:04.689Z,55.60
2018-08-20T03:06:09.599Z,55.60
2018-08-20T03:07:14.539Z,55.70
2018-08-20T03:08:19.357Z,55.60
2018-08-20T03:09:24.308Z,55.70
2018-08-20T03:10:29.122Z,55.70
2018-08-20T03:11:34.076Z,55.70
2018-08-20T03:12:39.010Z,55.70
2018-08-20T03:13:44.009Z,55.70
2018-08-20T03:14:48.989Z,55.80
2018-08-20T03:15:53.926Z,55.80
2018-08-20T03:16:58.864Z,56.00
2018-08-20T03:18:03.857Z,55.80
2018-08-20T03:19:08.698Z,55.80
2018-08-20T03:20:13.471Z,55.80
2018-08-20T03:21:18.402Z,55.80
2018-08-20T03:22:23.185Z,55.80
2018-08-20T03:23:28.122Z,55.80
2018-08-20T03:24:33.120Z,55.90
2018-08-20T03:25:37.971Z,56.00
2018-08-20T03:26:42.747Z,56.00
2018-08-20T03:27:47.560Z,55.90
2018-08-20T03:28:52.516Z,56.00
2018-08-20T03:29:57.348Z,56.10
2018-08-20T03:31:02.354Z,56.10
2018-08-20T03:32:07.286Z,56.10
2018-08-20T03:33:12.328Z,56.10
2018-08-20T03:34:17.349Z,56.00
2018-08-20T03:35:22.235Z,56.10
2018-08-20T03:36:27.215Z,56.10
2018-08-20T03:37:32.072Z,56.20
2018-08-20T03:38:37.013Z,56.10
2018-08-20T03:39:41.996Z,56.10
2018-08-20T03:40:46.806Z,56.20
2018-08-20T03:41:51.715Z,56.20
2018-08-20T03:42:56.642Z,56.20
2018-08-20T03:44:01.503Z,56.40
2018-08-20T03:45:06.466Z,56.50
2018-08-20T03:46:11.271Z,56.50
2018-08-20T03:47:16.244Z,56.50
2018-08-20T03:48:21.066Z,56.50
2018-08-20T03:49:26.004Z,56.50
2018-08-20T03:50:30.938Z,56.60
2018-08-20T03:51:35.907Z,56.60
2018-08-20T03:52:40.803Z,56.50
2018-08-20T03:53:45.826Z,56.50
2018-08-20T03:54:50.745Z,56.50
2018-08-20T03:55:55.484Z,56.50
2018-08-20T03:57:00.910Z,56.50
2018-08-20T03:58:05.704Z,56.60
2018-08-20T03:59:10.548Z,56.50
2018-08-20T04:00:15.499Z,56.50
2018-08-20T04:01:20.391Z,56.60
2018-08-20T04:02:25.229Z,56.60
2018-08-20T04:03:30.191Z,56.50
2018-08-20T04:04:35.148Z,56.50
2018-08-20T04:05:40.083Z,56.50
2018-08-20T04:06:45.030Z,56.60
2018-08-20T04:07:49.914Z,56.50
2018-08-20T04:08:54.728Z,56.60
2018-08-20T04:09:59.622Z,56.60
2018-08-20T04:11:04.545Z,56.70
2018-08-20T04:12:09.383Z,56.80
2018-08-20T04:13:14.339Z,56.80
2018-08-20T04:14:19.247Z,56.90
2018-08-20T04:15:24.236Z,56.90
2018-08-20T04:16:29.016Z,56.80
2018-08-20T04:17:33.960Z,56.80
2018-08-20T04:18:38.903Z,56.80
2018-08-20T04:19:43.812Z,56.80
2018-08-20T04:20:48.718Z,56.80
2018-08-20T04:21:53.531Z,56.90
2018-08-20T04:22:58.331Z,56.80
2018-08-20T04:24:03.251Z,56.80
2018-08-20T04:25:08.194Z,56.70
2018-08-20T04:26:13.083Z,56.70
2018-08-20T04:27:18.064Z,56.70
2018-08-20T04:28:22.876Z,56.70
2018-08-20T04:29:27.855Z,56.80
2018-08-20T04:30:32.740Z,56.90
2018-08-20T04:31:37.633Z,56.90
2018-08-20T04:32:42.514Z,57.00
2018-08-20T04:33:47.372Z,56.90
2018-08-20T04:34:52.313Z,56.90
2018-08-20T04:35:57.168Z,57.00
2018-08-20T04:37:01.950Z,57.10
2018-08-20T04:38:06.691Z,57.10
2018-08-20T04:39:11.641Z,57.10
2018-08-20T04:40:16.490Z,57.20
2018-08-20T04:41:21.241Z,57.20
2018-08-20T04:42:26.237Z,57.20
2018-08-20T04:43:31.125Z,57.20
2018-08-20T04:44:35.979Z,57.20
2018-08-20T04:45:40.950Z,57.30
2018-08-20T04:46:45.946Z,57.20
2018-08-20T04:47:50.868Z,57.30
2018-08-20T04:48:55.906Z,57.30
2018-08-20T04:50:00.910Z,57.90
2018-08-20T04:51:05.950Z,57.20
2018-08-20T04:52:10.809Z,57.10
2018-08-20T04:53:15.714Z,57.20
2018-08-20T04:54:20.661Z,57.20
2018-08-20T04:55:25.672Z,57.20
2018-08-20T04:56:30.625Z,57.10
2018-08-20T04:57:35.533Z,57.10
2018-08-20T04:58:40.474Z,57.20
2018-08-20T04:59:45.291Z,57.20
2018-08-20T05:00:50.084Z,57.10
2018-08-20T05:01:55.067Z,57.20
2018-08-20T05:02:59.853Z,57.90
2018-08-20T05:04:04.853Z,57.20
2018-08-20T05:05:09.718Z,57.20
2018-08-20T05:06:14.608Z,57.30
2018-08-20T05:07:19.468Z,57.30
2018-08-20T05:08:24.470Z,57.20
2018-08-20T05:09:29.292Z,57.20
2018-08-20T05:10:34.106Z,57.20
2018-08-20T05:11:39.012Z,57.20
2018-08-20T05:12:43.913Z,57.20
2018-08-20T05:13:48.829Z,57.20
2018-08-20T05:14:53.766Z,57.10
2018-08-20T05:15:58.612Z,57.10
2018-08-20T05:17:03.574Z,57.10
2018-08-20T05:18:08.498Z,57.10
2018-08-20T05:19:13.581Z,57.10
2018-08-20T05:20:18.407Z,57.00
2018-08-20T05:21:23.231Z,57.00
2018-08-20T05:22:28.133Z,57.00
2018-08-20T05:23:32.927Z,56.90
2018-08-20T05:24:37.750Z,56.90
2018-08-20T05:25:42.589Z,57.00
2018-08-20T05:26:47.581Z,57.00
2018-08-20T05:27:52.514Z,57.20
2018-08-20T05:28:57.356Z,57.00
2018-08-20T05:30:02.158Z,57.10
2018-08-20T05:31:06.997Z,57.10
2018-08-20T05:32:11.833Z,57.10
2018-08-20T05:33:16.834Z,57.20
2018-08-20T05:34:21.693Z,57.20
2018-08-20T05:35:26.636Z,57.30
2018-08-20T05:36:31.364Z,57.30
2018-08-20T05:37:36.165Z,57.40
2018-08-20T05:38:41.145Z,57.30
2018-08-20T05:39:46.063Z,57.30
2018-08-20T05:40:50.935Z,57.30
2018-08-20T05:41:55.727Z,57.30
2018-08-20T05:43:00.687Z,57.30
2018-08-20T05:44:05.484Z,57.20
2018-08-20T05:45:10.284Z,57.20
2018-08-20T05:46:15.108Z,57.10
2018-08-20T05:47:19.991Z,57.10
2018-08-20T05:48:24.938Z,57.00
2018-08-20T05:49:29.668Z,57.00
2018-08-20T05:50:34.482Z,57.20
2018-08-20T05:51:39.388Z,57.10
2018-08-20T05:52:44.174Z,57.20
2018-08-20T05:53:49.112Z,57.20
2018-08-20T05:54:53.863Z,57.20
2018-08-20T05:55:58.773Z,57.20
2018-08-20T05:57:03.575Z,57.30
2018-08-20T05:58:08.530Z,57.30
2018-08-20T05:59:13.380Z,57.40
2018-08-20T06:00:18.282Z,57.40
2018-08-20T06:01:23.085Z,57.30
2018-08-20T06:02:27.849Z,57.30
2018-08-20T06:03:32.861Z,57.30
2018-08-20T06:04:37.779Z,57.30
2018-08-20T06:05:42.539Z,57.30
2018-08-20T06:06:47.314Z,57.30
2018-08-20T06:07:52.325Z,57.30
2018-08-20T06:08:57.228Z,57.50
2018-08-20T06:10:02.234Z,57.30
2018-08-20T06:11:07.057Z,57.30
2018-08-20T06:12:11.958Z,57.20
2018-08-20T06:13:16.721Z,57.10
2018-08-20T06:14:21.467Z,57.20
2018-08-20T06:15:26.262Z,57.10
2018-08-20T06:16:31.140Z,57.10
2018-08-20T06:17:35.936Z,57.10
2018-08-20T06:18:40.740Z,57.10
2018-08-20T06:19:45.581Z,57.10
2018-08-20T06:20:50.461Z,57.00
2018-08-20T06:21:55.411Z,57.00
2018-08-20T06:23:00.212Z,57.00
2018-08-20T06:24:05.001Z,57.10
2018-08-20T06:25:09.831Z,57.10
2018-08-20T06:26:14.670Z,57.00
2018-08-20T06:27:19.538Z,57.00
2018-08-20T06:28:24.396Z,57.00
2018-08-20T06:29:29.177Z,57.00
2018-08-20T06:30:34.163Z,57.00
2018-08-20T06:31:38.968Z,57.00
2018-08-20T06:32:43.814Z,57.00
2018-08-20T06:33:48.728Z,57.00
2018-08-20T06:34:53.589Z,57.00
2018-08-20T06:35:58.555Z,57.10
2018-08-20T06:37:03.617Z,57.10
2018-08-20T06:38:08.401Z,57.10
2018-08-20T06:39:13.442Z,57.20
2018-08-20T06:40:18.288Z,57.30
2018-08-20T06:41:23.066Z,57.30
2018-08-20T06:42:27.911Z,57.30
2018-08-20T06:43:32.763Z,57.30
2018-08-20T06:44:37.669Z,57.30
2018-08-20T06:45:42.664Z,57.30
2018-08-20T06:46:48.248Z,57.30
2018-08-20T06:47:53.188Z,57.40
2018-08-20T06:48:58.138Z,57.40
2018-08-20T06:50:03.145Z,57.40
2018-08-20T06:51:08.079Z,57.40
2018-08-20T06:52:12.866Z,57.50
2018-08-20T06:53:17.326Z,57.40
2018-08-20T06:54:21.698Z,57.40
2018-08-20T06:55:26.114Z,57.50
2018-08-20T06:56:30.482Z,57.50
2018-08-20T06:57:34.676Z,57.50
2018-08-20T06:58:39.115Z,57.50
2018-08-20T06:59:43.514Z,57.60
2018-08-20T07:00:47.776Z,57.60
2018-08-20T07:01:52.079Z,57.60
2018-08-20T07:02:56.384Z,57.50
2018-08-20T07:04:00.648Z,57.60
2018-08-20T07:05:04.999Z,57.70
2018-08-20T07:06:09.281Z,57.70
2018-08-20T07:07:13.551Z,57.70
2018-08-20T07:08:17.967Z,57.70
2018-08-20T07:09:22.255Z,57.70
2018-08-20T07:10:26.488Z,57.80
2018-08-20T07:11:30.660Z,57.70
2018-08-20T07:12:35.167Z,57.80
2018-08-20T07:13:39.515Z,57.80
2018-08-20T07:14:43.906Z,57.90
2018-08-20T07:15:48.349Z,57.90
2018-08-20T07:16:52.615Z,57.80
2018-08-20T07:17:56.994Z,57.90
2018-08-20T07:19:01.217Z,57.90
2018-08-20T07:20:05.541Z,57.80
2018-08-20T07:21:09.871Z,57.90
2018-08-20T07:22:14.252Z,57.90
2018-08-20T07:23:18.714Z,57.90
2018-08-20T07:24:22.955Z,58.60
2018-08-20T07:25:27.263Z,58.00
2018-08-20T07:26:31.551Z,58.10
2018-08-20T07:27:35.978Z,58.10
2018-08-20T07:28:40.190Z,58.00
2018-08-20T07:29:44.511Z,58.10
2018-08-20T07:30:48.745Z,58.10
2018-08-20T07:31:53.034Z,58.00
2018-08-20T07:32:57.363Z,58.10
2018-08-20T07:34:01.585Z,58.10
2018-08-20T07:35:05.868Z,58.20
2018-08-20T07:36:10.121Z,58.20
2018-08-20T07:37:14.478Z,58.30
2018-08-20T07:38:18.900Z,58.30
2018-08-20T07:39:23.217Z,58.30
2018-08-20T07:40:27.610Z,58.30
2018-08-20T07:41:32.098Z,58.30
2018-08-20T07:42:36.565Z,58.30
2018-08-20T07:43:41.009Z,58.30
2018-08-20T07:44:45.321Z,58.10
2018-08-20T07:45:49.706Z,58.10
2018-08-20T07:46:54.048Z,58.00
2018-08-20T07:47:58.538Z,58.00
2018-08-20T07:49:02.775Z,58.00
2018-08-20T07:50:07.014Z,57.90
2018-08-20T07:51:11.436Z,57.90
2018-08-20T07:52:15.896Z,57.90
2018-08-20T07:53:20.229Z,58.00
2018-08-20T07:54:24.705Z,58.10
2018-08-20T07:55:28.984Z,58.10
2018-08-20T07:56:33.424Z,58.10
2018-08-20T07:57:37.736Z,58.10
2018-08-20T07:58:42.188Z,58.10
2018-08-20T07:59:46.470Z,58.10
2018-08-20T08:00:50.720Z,58.30
2018-08-20T08:01:54.988Z,58.20
2018-08-20T08:02:59.226Z,58.20
2018-08-20T08:04:03.492Z,58.10
2018-08-20T08:05:07.813Z,58.10
2018-08-20T08:06:12.080Z,58.10
2018-08-20T08:07:16.358Z,58.10
2018-08-20T08:08:20.733Z,58.10
2018-08-20T08:09:25.117Z,58.10
2018-08-20T08:10:29.490Z,58.10
2018-08-20T08:11:33.890Z,58.20
2018-08-20T08:12:38.240Z,58.10
2018-08-20T08:13:42.543Z,58.10
2018-08-20T08:14:46.810Z,58.10
2018-08-20T08:15:51.123Z,58.10
2018-08-20T08:16:55.429Z,58.00
2018-08-20T08:17:59.758Z,58.00
2018-08-20T08:19:04.120Z,58.00
2018-08-20T08:20:08.483Z,58.00
2018-08-20T08:21:12.721Z,57.90
2018-08-20T08:22:17.221Z,57.90
2018-08-20T08:23:21.588Z,58.00
2018-08-20T08:24:25.905Z,58.00
2018-08-20T08:25:30.368Z,58.00
2018-08-20T08:26:34.763Z,58.00
2018-08-20T08:26:47.460Z,58.00
2018-08-20T08:27:51.754Z,58.00
2018-08-20T08:28:03.654Z,58.00
2018-08-20T08:29:07.911Z,58.00
2018-08-20T08:30:12.261Z,58.10
2018-08-20T08:31:16.638Z,58.10
2018-08-20T08:32:21.049Z,58.10
2018-08-20T08:33:25.297Z,58.00
2018-08-20T08:34:29.683Z,58.00
2018-08-20T08:35:34.069Z,58.00
2018-08-20T08:36:38.283Z,57.90
2018-08-20T08:37:42.656Z,58.00
2018-08-20T08:38:46.995Z,58.00
2018-08-20T08:39:51.362Z,58.00
2018-08-20T08:40:55.634Z,58.00
2018-08-20T08:41:59.995Z,58.10
2018-08-20T08:43:04.441Z,58.00
2018-08-20T08:44:08.836Z,57.90
2018-08-20T08:45:13.132Z,57.80
2018-08-20T08:46:17.462Z,57.80
2018-08-20T08:47:21.846Z,57.70
2018-08-20T08:48:26.276Z,57.80
2018-08-20T08:49:30.564Z,57.80
2018-08-20T08:50:34.896Z,57.90
2018-08-20T08:51:39.329Z,58.00
2018-08-20T08:52:43.686Z,58.00
2018-08-20T08:53:47.992Z,58.00
2018-08-20T08:54:52.231Z,58.10
2018-08-20T08:55:56.667Z,58.10
2018-08-20T08:57:01.018Z,58.10
2018-08-20T08:58:05.473Z,58.10
2018-08-20T08:59:09.631Z,58.10
2018-08-20T09:00:13.939Z,58.10
2018-08-20T09:01:18.222Z,58.10
2018-08-20T09:02:22.601Z,58.80
2018-08-20T09:03:27.013Z,58.10
2018-08-20T09:04:31.255Z,58.10
2018-08-20T09:05:35.541Z,58.20
2018-08-20T09:06:39.777Z,58.10
2018-08-20T09:07:44.041Z,58.10
2018-08-20T09:08:48.510Z,58.10
2018-08-20T09:09:52.855Z,58.10
2018-08-20T09:10:57.256Z,58.10
2018-08-20T09:12:01.657Z,58.00
2018-08-20T09:13:06.081Z,58.10
2018-08-20T09:14:10.546Z,58.00
2018-08-20T09:15:14.921Z,58.00
2018-08-20T09:16:19.569Z,58.00
2018-08-20T09:17:24.059Z,57.90
2018-08-20T09:18:28.263Z,57.90
2018-08-20T09:19:32.723Z,58.00
2018-08-20T09:20:37.251Z,57.90
2018-08-20T09:21:41.737Z,57.90
2018-08-20T09:22:46.129Z,57.90
2018-08-20T09:23:50.510Z,57.90
2018-08-20T09:24:55.016Z,57.90
2018-08-20T09:25:59.350Z,57.90
2018-08-20T09:27:03.781Z,57.90
2018-08-20T09:28:08.244Z,57.90
2018-08-20T09:29:12.764Z,57.90
2018-08-20T09:30:17.307Z,57.90
2018-08-20T09:31:21.706Z,57.90
2018-08-20T09:32:26.303Z,57.90
2018-08-20T09:33:30.689Z,57.90
2018-08-20T09:34:35.061Z,57.90
2018-08-20T09:35:39.516Z,57.90
2018-08-20T09:36:43.997Z,57.90
2018-08-20T09:37:49.239Z,57.90
2018-08-20T09:38:53.799Z,57.80
2018-08-20T09:39:58.134Z,57.80
2018-08-20T09:41:02.524Z,57.70
2018-08-20T09:42:06.900Z,58.30
2018-08-20T09:43:11.304Z,57.50
2018-08-20T09:44:15.832Z,57.50
2018-08-20T09:45:20.387Z,57.40
2018-08-20T09:46:24.819Z,57.30
2018-08-20T09:47:29.339Z,57.20
2018-08-20T09:48:34.114Z,57.10
2018-08-20T09:48:48.163Z,57.10
2018-08-20T09:49:52.443Z,57.00
2018-08-20T09:50:56.822Z,57.00
2018-08-20T09:52:01.156Z,56.90
2018-08-20T09:53:08.876Z,56.90
2018-08-20T09:54:16.287Z,56.90
2018-08-20T09:55:20.764Z,56.90
2018-08-20T09:56:25.273Z,56.90
2018-08-20T09:57:30.492Z,56.90
2018-08-20T09:57:42.863Z,56.90
2018-08-20T09:58:47.371Z,56.90
2018-08-20T09:59:51.797Z,57.60
2018-08-20T10:00:56.252Z,56.90
2018-08-20T10:01:08.626Z,56.90
2018-08-20T10:02:13.194Z,56.90
2018-08-20T10:03:17.738Z,56.90
2018-08-20T10:04:22.838Z,56.90
2018-08-20T10:05:27.684Z,56.80
2018-08-20T10:06:32.465Z,56.90
2018-08-20T10:07:37.008Z,56.90
2018-08-20T10:08:41.340Z,56.90
2018-08-20T10:09:45.713Z,57.00
2018-08-20T10:10:50.173Z,57.00
2018-08-20T10:11:54.853Z,56.90
2018-08-20T10:12:59.239Z,56.90
2018-08-20T10:14:03.676Z,56.90
2018-08-20T10:15:08.013Z,56.90
2018-08-20T10:16:12.304Z,56.90
2018-08-20T10:17:16.774Z,56.80
2018-08-20T10:18:21.334Z,56.80
2018-08-20T10:19:25.719Z,56.80
2018-08-20T10:20:30.144Z,56.80
2018-08-20T10:21:34.591Z,56.80
2018-08-20T10:22:38.981Z,56.70
2018-08-20T10:23:43.457Z,56.70
2018-08-20T10:24:47.882Z,56.70
2018-08-20T10:25:52.375Z,56.70
2018-08-20T10:26:56.819Z,56.70
2018-08-20T10:28:01.280Z,56.80
2018-08-20T10:29:05.671Z,56.80
2018-08-20T10:30:10.042Z,57.40
2018-08-20T10:31:14.403Z,56.80
2018-08-20T10:32:18.809Z,56.80
2018-08-20T10:33:23.133Z,56.80
2018-08-20T10:34:27.458Z,56.80
2018-08-20T10:35:32.096Z,56.80
2018-08-20T10:36:36.397Z,56.70
2018-08-20T10:37:40.925Z,56.70
2018-08-20T10:38:45.203Z,56.60
2018-08-20T10:39:49.478Z,56.60
2018-08-20T10:40:53.922Z,56.60
2018-08-20T10:41:58.305Z,56.60
2018-08-20T10:43:02.731Z,56.50
2018-08-20T10:44:06.997Z,56.50
2018-08-20T10:45:11.477Z,56.50
2018-08-20T10:46:16.158Z,56.50
2018-08-20T10:47:20.375Z,56.50
2018-08-20T10:48:25.046Z,56.50
2018-08-20T10:49:29.474Z,56.70
2018-08-20T10:50:33.884Z,56.50
2018-08-20T10:51:38.263Z,56.50
2018-08-20T10:52:42.728Z,56.50
2018-08-20T10:53:47.315Z,56.40
2018-08-20T10:54:51.808Z,56.40
2018-08-20T10:55:56.374Z,56.40
2018-08-20T10:57:00.756Z,56.40
2018-08-20T10:58:05.292Z,56.30
2018-08-20T10:59:09.676Z,56.30
2018-08-20T11:00:14.216Z,56.30
2018-08-20T11:01:18.632Z,56.30
2018-08-20T11:02:23.227Z,56.30
2018-08-20T11:03:27.740Z,56.20
2018-08-20T11:04:32.145Z,56.30
2018-08-20T11:05:36.545Z,56.20
2018-08-20T11:06:40.849Z,56.20
2018-08-20T11:07:45.295Z,56.20
2018-08-20T11:08:49.566Z,56.20
2018-08-20T11:09:54.003Z,56.20
2018-08-20T11:10:58.505Z,56.90
2018-08-20T11:12:02.739Z,56.20
2018-08-20T11:13:07.136Z,56.20
2018-08-20T11:14:11.595Z,56.20
2018-08-20T11:15:15.889Z,56.20
2018-08-20T11:16:20.101Z,56.20
2018-08-20T11:17:24.535Z,56.10
2018-08-20T11:18:29.057Z,56.10
2018-08-20T11:19:33.355Z,56.20
2018-08-20T11:20:37.762Z,56.20
2018-08-20T11:21:42.035Z,56.20
2018-08-20T11:22:46.449Z,56.20
2018-08-20T11:23:50.870Z,56.20
2018-08-20T11:24:55.360Z,56.20
2018-08-20T11:25:59.694Z,56.20
2018-08-20T11:27:04.235Z,56.20
2018-08-20T11:28:08.735Z,56.20
2018-08-20T11:29:13.255Z,56.20
2018-08-20T11:30:17.862Z,56.20
2018-08-20T11:31:22.213Z,56.20
2018-08-20T11:32:26.492Z,56.20
2018-08-20T11:33:30.942Z,56.20
2018-08-20T11:34:35.288Z,56.20
2018-08-20T11:35:39.728Z,56.20
2018-08-20T11:36:44.146Z,56.20
2018-08-20T11:37:48.374Z,56.20
2018-08-20T11:38:52.872Z,56.20
2018-08-20T11:39:57.296Z,56.20
2018-08-20T11:41:01.714Z,56.20
2018-08-20T11:42:06.057Z,56.20
2018-08-20T11:43:10.964Z,56.30
2018-08-20T11:44:15.412Z,56.30
2018-08-20T11:45:19.841Z,56.30
2018-08-20T11:46:24.314Z,56.30
2018-08-20T11:47:28.606Z,56.30
2018-08-20T11:48:32.972Z,56.40
2018-08-20T11:49:37.504Z,56.40
2018-08-20T11:50:41.821Z,56.50
2018-08-20T11:51:46.045Z,56.50
2018-08-20T11:52:50.387Z,56.50
2018-08-20T11:53:54.740Z,56.50
2018-08-20T11:54:59.213Z,56.50
2018-08-20T11:56:03.969Z,56.50
2018-08-20T11:57:08.449Z,56.40
2018-08-20T11:58:12.729Z,56.40
2018-08-20T11:59:17.149Z,56.40
2018-08-20T12:00:21.593Z,56.40
2018-08-20T12:01:26.116Z,56.30
2018-08-20T12:02:30.598Z,56.30
2018-08-20T12:03:34.942Z,56.30
2018-08-20T12:04:39.355Z,56.30
2018-08-20T12:05:43.679Z,56.30
2018-08-20T12:06:48.142Z,56.30
2018-08-20T12:07:52.489Z,56.30
2018-08-20T12:08:56.856Z,56.30
2018-08-20T12:10:01.289Z,56.40
2018-08-20T12:11:05.669Z,56.40
2018-08-20T12:12:09.946Z,56.30
2018-08-20T12:13:14.292Z,56.30
2018-08-20T12:14:18.615Z,56.20
2018-08-20T12:15:23.078Z,56.40
2018-08-20T12:16:27.478Z,56.40
2018-08-20T12:17:31.980Z,56.30
2018-08-20T12:18:36.406Z,56.30
2018-08-20T12:19:40.810Z,56.40
2018-08-20T12:20:45.135Z,56.40
2018-08-20T12:21:49.596Z,56.30
2018-08-20T12:22:54.045Z,56.40
2018-08-20T12:23:58.537Z,56.30
2018-08-20T12:25:03.010Z,56.30
2018-08-20T12:26:07.334Z,56.20
2018-08-20T12:27:11.742Z,56.30
2018-08-20T12:28:16.286Z,56.20
2018-08-20T12:29:20.465Z,56.20
2018-08-20T12:30:24.889Z,56.30
2018-08-20T12:31:30.031Z,56.20
2018-08-20T12:32:34.482Z,56.90
2018-08-20T12:33:38.928Z,56.20
2018-08-20T12:34:43.283Z,56.20
2018-08-20T12:35:47.638Z,56.20
2018-08-20T12:36:52.156Z,56.20
2018-08-20T12:37:56.498Z,56.10
2018-08-20T12:39:00.868Z,56.20
2018-08-20T12:40:05.392Z,56.20
2018-08-20T12:41:09.626Z,56.20
2018-08-20T12:42:14.075Z,56.10
2018-08-20T12:43:18.574Z,56.10
2018-08-20T12:44:23.093Z,56.20
2018-08-20T12:45:27.582Z,56.10
2018-08-20T12:46:31.929Z,56.10
2018-08-20T12:47:36.442Z,56.10
2018-08-20T12:48:40.740Z,56.20
2018-08-20T12:49:45.233Z,56.10
2018-08-20T12:50:49.672Z,56.10
2018-08-20T12:51:54.100Z,56.00
2018-08-20T12:52:58.500Z,56.00
2018-08-20T12:54:02.973Z,55.90
2018-08-20T12:55:07.251Z,56.00
2018-08-20T12:56:11.658Z,56.10
2018-08-20T12:57:16.121Z,56.30
2018-08-20T12:58:20.435Z,56.10
2018-08-20T12:59:24.916Z,56.10
2018-08-20T13:00:29.402Z,56.00
2018-08-20T13:01:34.019Z,56.00
2018-08-20T13:02:38.430Z,55.90
2018-08-20T13:03:42.711Z,55.90
2018-08-20T13:04:47.107Z,55.90
2018-08-20T13:05:51.578Z,55.90
2018-08-20T13:06:55.869Z,55.80
2018-08-20T13:08:00.381Z,55.90
2018-08-20T13:09:04.979Z,55.90
2018-08-20T13:10:09.308Z,55.80
2018-08-20T13:11:13.788Z,55.80
2018-08-20T13:12:18.140Z,55.80
2018-08-20T13:13:22.553Z,55.80
2018-08-20T13:14:26.833Z,55.80
2018-08-20T13:15:31.181Z,55.70
2018-08-20T13:16:35.550Z,55.70
2018-08-20T13:17:40.049Z,55.90
2018-08-20T13:18:44.539Z,55.80
2018-08-20T13:19:48.972Z,55.70
2018-08-20T13:20:53.403Z,55.80
2018-08-20T13:21:57.943Z,56.30
2018-08-20T13:23:03.172Z,55.70
2018-08-20T13:24:07.634Z,55.70
2018-08-20T13:25:11.959Z,55.70
2018-08-20T13:26:16.353Z,55.60
2018-08-20T13:26:27.821Z,55.60
2018-08-20T13:27:32.059Z,55.60
2018-08-20T13:28:36.353Z,55.60
2018-08-20T13:29:40.667Z,55.70
2018-08-20T13:30:45.135Z,55.70
2018-08-20T13:31:49.411Z,55.70
2018-08-20T13:32:53.740Z,55.70
2018-08-20T13:33:58.240Z,55.60
2018-08-20T13:35:02.971Z,55.60
2018-08-20T13:36:07.375Z,55.60
2018-08-20T13:37:11.709Z,55.70
2018-08-20T13:38:15.993Z,55.60
2018-08-20T13:39:20.231Z,55.60
2018-08-20T13:40:24.559Z,55.60
2018-08-20T13:41:29.626Z,55.60
2018-08-20T13:42:34.032Z,55.70
2018-08-20T13:43:38.604Z,55.60
2018-08-20T13:44:43.032Z,55.60
2018-08-20T13:45:47.390Z,55.60
2018-08-20T13:46:51.952Z,55.50